sensor_id;sensor_type;location;lat;lon;timestamp;P1;durP1;ratioP1;P2;durP2;ratioP2
4812;SDS011;2420;51.202;8.698;2024-01-27T00:01:10;13.02;;;2.97;;
4812;SDS011;2420;51.202;8.698;2024-01-27T00:03:36;9.35;;;2.95;;
4812;SDS011;2420;51.202;8.698;2024-01-27T00:06:01;10.18;;;2.70;;
4812;SDS011;2420;51.202;8.698;2024-01-27T00:08:27;13.20;;;3.47;;
4812;SDS011;2420;51.202;8.698;2024-01-27T00:10:53;11.65;;;2.80;;
4812;SDS011;2420;51.202;8.698;2024-01-27T00:13:18;10.18;;;2.55;;
4812;SDS011;2420;51.202;8.698;2024-01-27T00:15:44;13.52;;;3.10;;
4812;SDS011;2420;51.202;8.698;2024-01-27T00:18:09;10.20;;;2.90;;
4812;SDS011;2420;51.202;8.698;2024-01-27T00:20:35;9.60;;;2.53;;
4812;SDS011;2420;51.202;8.698;2024-01-27T00:23:01;10.23;;;2.95;;
4812;SDS011;2420;51.202;8.698;2024-01-27T00:25:26;11.88;;;3.45;;
4812;SDS011;2420;51.202;8.698;2024-01-27T00:27:52;10.77;;;3.28;;
4812;SDS011;2420;51.202;8.698;2024-01-27T00:30:17;8.20;;;2.70;;
4812;SDS011;2420;51.202;8.698;2024-01-27T00:32:43;8.15;;;3.10;;
4812;SDS011;2420;51.202;8.698;2024-01-27T00:35:08;11.70;;;2.97;;
4812;SDS011;2420;51.202;8.698;2024-01-27T00:37:36;11.48;;;3.45;;
4812;SDS011;2420;51.202;8.698;2024-01-27T00:40:02;9.82;;;3.25;;
4812;SDS011;2420;51.202;8.698;2024-01-27T00:42:28;13.52;;;3.88;;
4812;SDS011;2420;51.202;8.698;2024-01-27T00:44:53;11.73;;;3.63;;
4812;SDS011;2420;51.202;8.698;2024-01-27T00:47:19;17.05;;;3.50;;
4812;SDS011;2420;51.202;8.698;2024-01-27T00:49:44;12.05;;;3.03;;
4812;SDS011;2420;51.202;8.698;2024-01-27T00:52:10;12.80;;;3.25;;
4812;SDS011;2420;51.202;8.698;2024-01-27T00:54:35;14.75;;;3.63;;
4812;SDS011;2420;51.202;8.698;2024-01-27T00:57:01;15.63;;;3.13;;
4812;SDS011;2420;51.202;8.698;2024-01-27T00:59:27;10.75;;;3.60;;
4812;SDS011;2420;51.202;8.698;2024-01-27T01:01:52;9.50;;;2.95;;
4812;SDS011;2420;51.202;8.698;2024-01-27T01:04:18;8.43;;;3.20;;
4812;SDS011;2420;51.202;8.698;2024-01-27T01:06:43;10.30;;;3.13;;
4812;SDS011;2420;51.202;8.698;2024-01-27T01:09:09;12.45;;;3.22;;
4812;SDS011;2420;51.202;8.698;2024-01-27T01:11:35;11.57;;;2.75;;
4812;SDS011;2420;51.202;8.698;2024-01-27T01:14:00;11.23;;;3.35;;
4812;SDS011;2420;51.202;8.698;2024-01-27T01:16:26;12.98;;;3.38;;
4812;SDS011;2420;51.202;8.698;2024-01-27T01:18:51;15.48;;;3.25;;
4812;SDS011;2420;51.202;8.698;2024-01-27T01:21:17;9.02;;;3.17;;
4812;SDS011;2420;51.202;8.698;2024-01-27T01:23:42;10.70;;;3.15;;
4812;SDS011;2420;51.202;8.698;2024-01-27T01:26:08;11.98;;;3.15;;
4812;SDS011;2420;51.202;8.698;2024-01-27T01:28:33;13.95;;;3.65;;
4812;SDS011;2420;51.202;8.698;2024-01-27T01:30:59;10.55;;;3.17;;
4812;SDS011;2420;51.202;8.698;2024-01-27T01:33:25;11.20;;;3.33;;
4812;SDS011;2420;51.202;8.698;2024-01-27T01:35:50;10.80;;;3.55;;
4812;SDS011;2420;51.202;8.698;2024-01-27T01:38:16;10.70;;;3.17;;
4812;SDS011;2420;51.202;8.698;2024-01-27T01:40:41;14.07;;;3.45;;
4812;SDS011;2420;51.202;8.698;2024-01-27T01:43:10;15.60;;;3.42;;
4812;SDS011;2420;51.202;8.698;2024-01-27T01:45:38;14.25;;;2.90;;
4812;SDS011;2420;51.202;8.698;2024-01-27T01:48:04;10.52;;;2.72;;
4812;SDS011;2420;51.202;8.698;2024-01-27T01:50:32;13.15;;;2.88;;
4812;SDS011;2420;51.202;8.698;2024-01-27T01:52:58;9.63;;;3.10;;
4812;SDS011;2420;51.202;8.698;2024-01-27T01:55:23;9.98;;;3.22;;
4812;SDS011;2420;51.202;8.698;2024-01-27T01:57:49;15.20;;;3.05;;
4812;SDS011;2420;51.202;8.698;2024-01-27T02:00:16;11.88;;;3.05;;
4812;SDS011;2420;51.202;8.698;2024-01-27T02:02:45;10.05;;;2.85;;
4812;SDS011;2420;51.202;8.698;2024-01-27T02:05:13;11.82;;;3.33;;
4812;SDS011;2420;51.202;8.698;2024-01-27T02:07:39;14.02;;;3.70;;
4812;SDS011;2420;51.202;8.698;2024-01-27T02:10:06;10.55;;;3.00;;
4812;SDS011;2420;51.202;8.698;2024-01-27T02:12:37;13.70;;;3.20;;
4812;SDS011;2420;51.202;8.698;2024-01-27T02:15:03;11.45;;;3.33;;
4812;SDS011;2420;51.202;8.698;2024-01-27T02:17:29;12.30;;;3.15;;
4812;SDS011;2420;51.202;8.698;2024-01-27T02:19:55;7.82;;;2.38;;
4812;SDS011;2420;51.202;8.698;2024-01-27T02:22:20;9.68;;;2.60;;
4812;SDS011;2420;51.202;8.698;2024-01-27T02:24:46;16.25;;;3.33;;
4812;SDS011;2420;51.202;8.698;2024-01-27T02:27:12;12.27;;;3.47;;
4812;SDS011;2420;51.202;8.698;2024-01-27T02:29:37;8.70;;;3.10;;
4812;SDS011;2420;51.202;8.698;2024-01-27T02:32:03;10.65;;;3.17;;
4812;SDS011;2420;51.202;8.698;2024-01-27T02:34:29;16.42;;;4.28;;
4812;SDS011;2420;51.202;8.698;2024-01-27T02:36:55;14.30;;;3.20;;
4812;SDS011;2420;51.202;8.698;2024-01-27T02:39:20;8.98;;;3.28;;
4812;SDS011;2420;51.202;8.698;2024-01-27T02:41:46;10.27;;;3.00;;
4812;SDS011;2420;51.202;8.698;2024-01-27T02:44:12;12.25;;;3.35;;
4812;SDS011;2420;51.202;8.698;2024-01-27T02:46:37;11.65;;;3.30;;
4812;SDS011;2420;51.202;8.698;2024-01-27T02:49:03;12.43;;;3.47;;
4812;SDS011;2420;51.202;8.698;2024-01-27T02:51:28;14.55;;;4.43;;
4812;SDS011;2420;51.202;8.698;2024-01-27T02:53:54;10.00;;;3.42;;
4812;SDS011;2420;51.202;8.698;2024-01-27T02:56:20;13.80;;;4.10;;
4812;SDS011;2420;51.202;8.698;2024-01-27T02:58:45;9.70;;;3.65;;
4812;SDS011;2420;51.202;8.698;2024-01-27T03:01:11;12.30;;;4.13;;
4812;SDS011;2420;51.202;8.698;2024-01-27T03:03:36;12.27;;;4.05;;
4812;SDS011;2420;51.202;8.698;2024-01-27T03:06:02;12.98;;;4.65;;
4812;SDS011;2420;51.202;8.698;2024-01-27T03:08:27;13.50;;;4.75;;
4812;SDS011;2420;51.202;8.698;2024-01-27T03:10:53;18.15;;;4.65;;
4812;SDS011;2420;51.202;8.698;2024-01-27T03:13:18;10.15;;;4.80;;
4812;SDS011;2420;51.202;8.698;2024-01-27T03:15:44;16.00;;;4.55;;
4812;SDS011;2420;51.202;8.698;2024-01-27T03:18:10;10.77;;;4.07;;
4812;SDS011;2420;51.202;8.698;2024-01-27T03:20:35;10.85;;;4.07;;
4812;SDS011;2420;51.202;8.698;2024-01-27T03:23:01;13.95;;;4.90;;
4812;SDS011;2420;51.202;8.698;2024-01-27T03:25:26;12.63;;;4.15;;
4812;SDS011;2420;51.202;8.698;2024-01-27T03:27:52;11.77;;;4.43;;
4812;SDS011;2420;51.202;8.698;2024-01-27T03:30:18;14.45;;;4.63;;
4812;SDS011;2420;51.202;8.698;2024-01-27T03:32:44;12.13;;;4.97;;
4812;SDS011;2420;51.202;8.698;2024-01-27T03:35:09;12.38;;;4.97;;
4812;SDS011;2420;51.202;8.698;2024-01-27T03:37:35;13.85;;;4.40;;
4812;SDS011;2420;51.202;8.698;2024-01-27T03:40:01;15.88;;;4.57;;
4812;SDS011;2420;51.202;8.698;2024-01-27T03:42:27;13.52;;;4.60;;
4812;SDS011;2420;51.202;8.698;2024-01-27T03:44:53;12.70;;;5.00;;
4812;SDS011;2420;51.202;8.698;2024-01-27T03:47:18;16.55;;;4.70;;
4812;SDS011;2420;51.202;8.698;2024-01-27T03:49:44;14.18;;;5.57;;
4812;SDS011;2420;51.202;8.698;2024-01-27T03:52:09;14.05;;;5.10;;
4812;SDS011;2420;51.202;8.698;2024-01-27T03:54:37;13.90;;;5.85;;
4812;SDS011;2420;51.202;8.698;2024-01-27T03:57:03;12.60;;;4.72;;
4812;SDS011;2420;51.202;8.698;2024-01-27T03:59:28;15.57;;;5.28;;
4812;SDS011;2420;51.202;8.698;2024-01-27T04:01:54;13.95;;;5.15;;
4812;SDS011;2420;51.202;8.698;2024-01-27T04:04:20;15.15;;;5.40;;
4812;SDS011;2420;51.202;8.698;2024-01-27T04:06:46;16.17;;;5.50;;
4812;SDS011;2420;51.202;8.698;2024-01-27T04:09:11;12.18;;;4.90;;
4812;SDS011;2420;51.202;8.698;2024-01-27T04:11:37;18.92;;;5.47;;
4812;SDS011;2420;51.202;8.698;2024-01-27T04:14:04;13.20;;;4.68;;
4812;SDS011;2420;51.202;8.698;2024-01-27T04:16:30;17.48;;;4.82;;
4812;SDS011;2420;51.202;8.698;2024-01-27T04:18:56;16.58;;;5.18;;
4812;SDS011;2420;51.202;8.698;2024-01-27T04:21:22;11.35;;;4.35;;
4812;SDS011;2420;51.202;8.698;2024-01-27T04:23:47;13.57;;;4.80;;
4812;SDS011;2420;51.202;8.698;2024-01-27T04:26:13;11.75;;;4.38;;
4812;SDS011;2420;51.202;8.698;2024-01-27T04:28:38;19.60;;;6.60;;
4812;SDS011;2420;51.202;8.698;2024-01-27T04:31:04;15.05;;;5.07;;
4812;SDS011;2420;51.202;8.698;2024-01-27T04:33:30;11.48;;;4.45;;
4812;SDS011;2420;51.202;8.698;2024-01-27T04:35:55;17.92;;;6.70;;
4812;SDS011;2420;51.202;8.698;2024-01-27T04:38:21;14.82;;;5.03;;
4812;SDS011;2420;51.202;8.698;2024-01-27T04:40:47;13.13;;;4.97;;
4812;SDS011;2420;51.202;8.698;2024-01-27T04:43:17;15.23;;;5.10;;
4812;SDS011;2420;51.202;8.698;2024-01-27T04:45:43;16.48;;;5.10;;
4812;SDS011;2420;51.202;8.698;2024-01-27T04:48:09;14.52;;;5.10;;
4812;SDS011;2420;51.202;8.698;2024-01-27T04:50:35;16.73;;;4.30;;
4812;SDS011;2420;51.202;8.698;2024-01-27T04:53:01;11.88;;;4.28;;
4812;SDS011;2420;51.202;8.698;2024-01-27T04:55:27;12.88;;;4.28;;
4812;SDS011;2420;51.202;8.698;2024-01-27T04:57:52;13.85;;;4.43;;
4812;SDS011;2420;51.202;8.698;2024-01-27T05:00:18;12.98;;;3.67;;
4812;SDS011;2420;51.202;8.698;2024-01-27T05:02:44;10.73;;;3.65;;
4812;SDS011;2420;51.202;8.698;2024-01-27T05:05:10;13.27;;;3.35;;
4812;SDS011;2420;51.202;8.698;2024-01-27T05:07:37;13.57;;;3.90;;
4812;SDS011;2420;51.202;8.698;2024-01-27T05:10:03;9.82;;;4.20;;
4812;SDS011;2420;51.202;8.698;2024-01-27T05:12:29;9.35;;;3.92;;
4812;SDS011;2420;51.202;8.698;2024-01-27T05:14:55;14.07;;;3.75;;
4812;SDS011;2420;51.202;8.698;2024-01-27T05:17:20;7.25;;;3.20;;
4812;SDS011;2420;51.202;8.698;2024-01-27T05:19:46;14.82;;;3.70;;
4812;SDS011;2420;51.202;8.698;2024-01-27T05:22:11;13.75;;;3.53;;
4812;SDS011;2420;51.202;8.698;2024-01-27T05:24:37;10.25;;;3.25;;
4812;SDS011;2420;51.202;8.698;2024-01-27T05:27:03;10.70;;;4.00;;
4812;SDS011;2420;51.202;8.698;2024-01-27T05:29:28;14.98;;;3.58;;
4812;SDS011;2420;51.202;8.698;2024-01-27T05:31:54;11.80;;;3.60;;
4812;SDS011;2420;51.202;8.698;2024-01-27T05:34:20;11.13;;;3.65;;
4812;SDS011;2420;51.202;8.698;2024-01-27T05:36:46;16.23;;;3.83;;
4812;SDS011;2420;51.202;8.698;2024-01-27T05:39:13;10.70;;;3.80;;
4812;SDS011;2420;51.202;8.698;2024-01-27T05:41:39;15.40;;;3.33;;
4812;SDS011;2420;51.202;8.698;2024-01-27T05:44:04;10.63;;;3.78;;
4812;SDS011;2420;51.202;8.698;2024-01-27T05:46:30;14.55;;;3.33;;
4812;SDS011;2420;51.202;8.698;2024-01-27T05:48:56;11.18;;;3.60;;
4812;SDS011;2420;51.202;8.698;2024-01-27T05:51:28;11.07;;;4.38;;
4812;SDS011;2420;51.202;8.698;2024-01-27T05:53:54;11.18;;;3.90;;
4812;SDS011;2420;51.202;8.698;2024-01-27T05:56:19;12.38;;;3.85;;
4812;SDS011;2420;51.202;8.698;2024-01-27T05:58:45;9.10;;;3.13;;
4812;SDS011;2420;51.202;8.698;2024-01-27T06:01:11;9.35;;;3.53;;
4812;SDS011;2420;51.202;8.698;2024-01-27T06:03:37;9.82;;;3.92;;
4812;SDS011;2420;51.202;8.698;2024-01-27T06:06:02;12.90;;;5.40;;
4812;SDS011;2420;51.202;8.698;2024-01-27T06:08:28;14.85;;;4.45;;
4812;SDS011;2420;51.202;8.698;2024-01-27T06:10:54;9.40;;;3.75;;
4812;SDS011;2420;51.202;8.698;2024-01-27T06:13:19;16.10;;;4.25;;
4812;SDS011;2420;51.202;8.698;2024-01-27T06:15:45;11.50;;;4.07;;
4812;SDS011;2420;51.202;8.698;2024-01-27T06:18:10;12.50;;;4.15;;
4812;SDS011;2420;51.202;8.698;2024-01-27T06:20:36;10.90;;;4.43;;
4812;SDS011;2420;51.202;8.698;2024-01-27T06:23:01;12.18;;;4.95;;
4812;SDS011;2420;51.202;8.698;2024-01-27T06:25:27;12.02;;;5.40;;
4812;SDS011;2420;51.202;8.698;2024-01-27T06:27:53;14.00;;;6.30;;
4812;SDS011;2420;51.202;8.698;2024-01-27T06:30:18;10.85;;;6.38;;
4812;SDS011;2420;51.202;8.698;2024-01-27T06:32:44;16.95;;;7.15;;
4812;SDS011;2420;51.202;8.698;2024-01-27T06:35:09;18.33;;;8.02;;
4812;SDS011;2420;51.202;8.698;2024-01-27T06:37:35;20.42;;;10.30;;
4812;SDS011;2420;51.202;8.698;2024-01-27T06:40:01;19.67;;;9.18;;
4812;SDS011;2420;51.202;8.698;2024-01-27T06:42:27;20.60;;;9.10;;
4812;SDS011;2420;51.202;8.698;2024-01-27T06:44:53;21.35;;;9.18;;
4812;SDS011;2420;51.202;8.698;2024-01-27T06:47:19;20.27;;;8.50;;
4812;SDS011;2420;51.202;8.698;2024-01-27T06:49:44;18.45;;;8.98;;
4812;SDS011;2420;51.202;8.698;2024-01-27T06:52:10;19.95;;;8.85;;
4812;SDS011;2420;51.202;8.698;2024-01-27T06:54:37;16.98;;;8.13;;
4812;SDS011;2420;51.202;8.698;2024-01-27T06:57:06;17.42;;;7.47;;
4812;SDS011;2420;51.202;8.698;2024-01-27T06:59:42;18.88;;;6.90;;
4812;SDS011;2420;51.202;8.698;2024-01-27T07:02:07;15.10;;;7.15;;
4812;SDS011;2420;51.202;8.698;2024-01-27T07:04:38;22.98;;;10.82;;
4812;SDS011;2420;51.202;8.698;2024-01-27T07:07:04;21.35;;;9.43;;
4812;SDS011;2420;51.202;8.698;2024-01-27T07:09:30;17.85;;;7.90;;
4812;SDS011;2420;51.202;8.698;2024-01-27T07:11:55;24.17;;;8.60;;
4812;SDS011;2420;51.202;8.698;2024-01-27T07:14:21;18.27;;;7.80;;
4812;SDS011;2420;51.202;8.698;2024-01-27T07:16:46;21.35;;;7.90;;
4812;SDS011;2420;51.202;8.698;2024-01-27T07:19:12;19.45;;;10.30;;
4812;SDS011;2420;51.202;8.698;2024-01-27T07:21:38;20.10;;;8.75;;
4812;SDS011;2420;51.202;8.698;2024-01-27T07:24:04;26.10;;;10.25;;
4812;SDS011;2420;51.202;8.698;2024-01-27T07:26:29;16.23;;;8.07;;
4812;SDS011;2420;51.202;8.698;2024-01-27T07:28:56;17.55;;;7.90;;
4812;SDS011;2420;51.202;8.698;2024-01-27T07:31:22;16.80;;;8.20;;
4812;SDS011;2420;51.202;8.698;2024-01-27T07:33:49;21.42;;;8.68;;
4812;SDS011;2420;51.202;8.698;2024-01-27T07:36:18;20.10;;;8.20;;
4812;SDS011;2420;51.202;8.698;2024-01-27T07:38:46;19.08;;;7.50;;
4812;SDS011;2420;51.202;8.698;2024-01-27T07:41:11;20.08;;;6.35;;
4812;SDS011;2420;51.202;8.698;2024-01-27T07:43:38;15.07;;;6.72;;
4812;SDS011;2420;51.202;8.698;2024-01-27T07:46:03;22.15;;;8.52;;
4812;SDS011;2420;51.202;8.698;2024-01-27T07:48:29;17.25;;;9.10;;
4812;SDS011;2420;51.202;8.698;2024-01-27T07:50:55;21.73;;;9.68;;
4812;SDS011;2420;51.202;8.698;2024-01-27T07:53:21;21.27;;;10.40;;
4812;SDS011;2420;51.202;8.698;2024-01-27T07:55:47;44.35;;;21.98;;
4812;SDS011;2420;51.202;8.698;2024-01-27T07:58:12;21.63;;;10.60;;
4812;SDS011;2420;51.202;8.698;2024-01-27T08:00:38;26.42;;;11.52;;
4812;SDS011;2420;51.202;8.698;2024-01-27T08:03:03;27.02;;;12.57;;
4812;SDS011;2420;51.202;8.698;2024-01-27T08:05:30;21.77;;;10.85;;
4812;SDS011;2420;51.202;8.698;2024-01-27T08:07:55;25.05;;;11.25;;
4812;SDS011;2420;51.202;8.698;2024-01-27T08:10:21;24.30;;;10.90;;
4812;SDS011;2420;51.202;8.698;2024-01-27T08:12:47;22.10;;;9.75;;
4812;SDS011;2420;51.202;8.698;2024-01-27T08:15:13;21.15;;;9.80;;
4812;SDS011;2420;51.202;8.698;2024-01-27T08:17:38;22.83;;;9.52;;
4812;SDS011;2420;51.202;8.698;2024-01-27T08:20:04;22.67;;;9.25;;
4812;SDS011;2420;51.202;8.698;2024-01-27T08:22:30;20.35;;;9.30;;
4812;SDS011;2420;51.202;8.698;2024-01-27T08:24:56;35.95;;;13.98;;
4812;SDS011;2420;51.202;8.698;2024-01-27T08:27:21;26.38;;;12.10;;
4812;SDS011;2420;51.202;8.698;2024-01-27T08:29:47;23.13;;;9.75;;
4812;SDS011;2420;51.202;8.698;2024-01-27T08:32:13;25.20;;;10.35;;
4812;SDS011;2420;51.202;8.698;2024-01-27T08:34:39;27.02;;;9.93;;
4812;SDS011;2420;51.202;8.698;2024-01-27T08:37:13;27.55;;;10.57;;
4812;SDS011;2420;51.202;8.698;2024-01-27T08:39:43;17.35;;;9.80;;
4812;SDS011;2420;51.202;8.698;2024-01-27T08:42:10;20.02;;;10.20;;
4812;SDS011;2420;51.202;8.698;2024-01-27T08:44:36;17.75;;;10.88;;
4812;SDS011;2420;51.202;8.698;2024-01-27T08:47:02;21.92;;;10.15;;
4812;SDS011;2420;51.202;8.698;2024-01-27T08:49:27;21.45;;;10.60;;
4812;SDS011;2420;51.202;8.698;2024-01-27T08:51:53;22.48;;;10.40;;
4812;SDS011;2420;51.202;8.698;2024-01-27T08:54:20;29.10;;;12.88;;
4812;SDS011;2420;51.202;8.698;2024-01-27T08:56:45;23.92;;;12.02;;
4812;SDS011;2420;51.202;8.698;2024-01-27T08:59:11;24.40;;;10.70;;
4812;SDS011;2420;51.202;8.698;2024-01-27T09:01:36;24.02;;;10.05;;
4812;SDS011;2420;51.202;8.698;2024-01-27T09:04:02;19.75;;;9.60;;
4812;SDS011;2420;51.202;8.698;2024-01-27T09:06:27;21.95;;;9.52;;
4812;SDS011;2420;51.202;8.698;2024-01-27T09:08:53;23.60;;;10.93;;
4812;SDS011;2420;51.202;8.698;2024-01-27T09:11:18;21.23;;;10.35;;
4812;SDS011;2420;51.202;8.698;2024-01-27T09:13:44;26.92;;;12.27;;
4812;SDS011;2420;51.202;8.698;2024-01-27T09:16:10;22.20;;;10.02;;
4812;SDS011;2420;51.202;8.698;2024-01-27T09:18:38;22.42;;;10.55;;
4812;SDS011;2420;51.202;8.698;2024-01-27T09:21:04;26.08;;;11.23;;
4812;SDS011;2420;51.202;8.698;2024-01-27T09:23:29;18.88;;;9.45;;
4812;SDS011;2420;51.202;8.698;2024-01-27T09:25:55;19.20;;;9.07;;
4812;SDS011;2420;51.202;8.698;2024-01-27T09:28:20;22.90;;;8.70;;
4812;SDS011;2420;51.202;8.698;2024-01-27T09:30:46;20.65;;;9.35;;
4812;SDS011;2420;51.202;8.698;2024-01-27T09:33:12;25.42;;;10.50;;
4812;SDS011;2420;51.202;8.698;2024-01-27T09:35:38;17.15;;;8.80;;
4812;SDS011;2420;51.202;8.698;2024-01-27T09:38:04;21.85;;;10.13;;
4812;SDS011;2420;51.202;8.698;2024-01-27T09:40:31;20.30;;;10.02;;
4812;SDS011;2420;51.202;8.698;2024-01-27T09:42:57;24.40;;;9.95;;
4812;SDS011;2420;51.202;8.698;2024-01-27T09:45:24;20.67;;;9.02;;
4812;SDS011;2420;51.202;8.698;2024-01-27T09:47:51;23.30;;;8.07;;
4812;SDS011;2420;51.202;8.698;2024-01-27T09:50:17;19.20;;;7.80;;
4812;SDS011;2420;51.202;8.698;2024-01-27T09:52:43;14.82;;;6.72;;
4812;SDS011;2420;51.202;8.698;2024-01-27T09:55:09;15.90;;;6.85;;
4812;SDS011;2420;51.202;8.698;2024-01-27T09:57:36;20.05;;;9.20;;
4812;SDS011;2420;51.202;8.698;2024-01-27T10:00:04;19.30;;;10.32;;
4812;SDS011;2420;51.202;8.698;2024-01-27T10:02:31;21.85;;;10.52;;
4812;SDS011;2420;51.202;8.698;2024-01-27T10:04:57;20.90;;;8.00;;
4812;SDS011;2420;51.202;8.698;2024-01-27T10:07:23;26.20;;;11.35;;
4812;SDS011;2420;51.202;8.698;2024-01-27T10:09:50;24.58;;;9.60;;
4812;SDS011;2420;51.202;8.698;2024-01-27T10:12:15;16.55;;;8.32;;
4812;SDS011;2420;51.202;8.698;2024-01-27T10:14:43;19.60;;;9.38;;
4812;SDS011;2420;51.202;8.698;2024-01-27T10:17:20;28.95;;;11.70;;
4812;SDS011;2420;51.202;8.698;2024-01-27T10:19:47;18.63;;;10.45;;
4812;SDS011;2420;51.202;8.698;2024-01-27T10:22:13;22.83;;;10.88;;
4812;SDS011;2420;51.202;8.698;2024-01-27T10:24:38;22.63;;;10.93;;
4812;SDS011;2420;51.202;8.698;2024-01-27T10:27:04;29.58;;;13.05;;
4812;SDS011;2420;51.202;8.698;2024-01-27T10:29:30;26.17;;;12.57;;
4812;SDS011;2420;51.202;8.698;2024-01-27T10:31:56;24.65;;;12.60;;
4812;SDS011;2420;51.202;8.698;2024-01-27T10:34:33;24.00;;;13.13;;
4812;SDS011;2420;51.202;8.698;2024-01-27T10:36:58;24.10;;;12.15;;
4812;SDS011;2420;51.202;8.698;2024-01-27T10:39:24;19.48;;;7.72;;
4812;SDS011;2420;51.202;8.698;2024-01-27T10:41:49;15.90;;;7.47;;
4812;SDS011;2420;51.202;8.698;2024-01-27T10:44:16;13.35;;;4.95;;
4812;SDS011;2420;51.202;8.698;2024-01-27T10:46:43;11.15;;;4.03;;
4812;SDS011;2420;51.202;8.698;2024-01-27T10:49:13;10.98;;;4.70;;
4812;SDS011;2420;51.202;8.698;2024-01-27T10:51:46;11.43;;;4.88;;
4812;SDS011;2420;51.202;8.698;2024-01-27T10:54:23;12.80;;;4.75;;
4812;SDS011;2420;51.202;8.698;2024-01-27T10:56:51;16.80;;;5.13;;
4812;SDS011;2420;51.202;8.698;2024-01-27T10:59:19;15.48;;;5.47;;
4812;SDS011;2420;51.202;8.698;2024-01-27T11:01:48;10.95;;;4.50;;
4812;SDS011;2420;51.202;8.698;2024-01-27T11:04:18;16.17;;;4.65;;
4812;SDS011;2420;51.202;8.698;2024-01-27T11:06:44;9.70;;;4.45;;
4812;SDS011;2420;51.202;8.698;2024-01-27T11:09:12;9.82;;;4.03;;
4812;SDS011;2420;51.202;8.698;2024-01-27T11:11:39;11.98;;;3.28;;
4812;SDS011;2420;51.202;8.698;2024-01-27T11:14:07;10.82;;;3.65;;
4812;SDS011;2420;51.202;8.698;2024-01-27T11:16:34;11.18;;;3.25;;
4812;SDS011;2420;51.202;8.698;2024-01-27T11:19:00;9.93;;;3.63;;
4812;SDS011;2420;51.202;8.698;2024-01-27T11:21:27;9.02;;;3.30;;
4812;SDS011;2420;51.202;8.698;2024-01-27T11:23:52;7.00;;;2.83;;
4812;SDS011;2420;51.202;8.698;2024-01-27T11:26:21;12.90;;;3.00;;
4812;SDS011;2420;51.202;8.698;2024-01-27T11:28:48;6.95;;;2.97;;
4812;SDS011;2420;51.202;8.698;2024-01-27T11:31:15;5.80;;;2.30;;
4812;SDS011;2420;51.202;8.698;2024-01-27T11:33:44;11.60;;;2.72;;
4812;SDS011;2420;51.202;8.698;2024-01-27T11:36:21;7.60;;;2.53;;
4812;SDS011;2420;51.202;8.698;2024-01-27T11:38:48;8.10;;;2.55;;
4812;SDS011;2420;51.202;8.698;2024-01-27T11:41:23;8.63;;;2.78;;
4812;SDS011;2420;51.202;8.698;2024-01-27T11:43:58;8.80;;;2.47;;
4812;SDS011;2420;51.202;8.698;2024-01-27T11:46:27;8.93;;;2.65;;
4812;SDS011;2420;51.202;8.698;2024-01-27T11:48:52;6.10;;;2.05;;
4812;SDS011;2420;51.202;8.698;2024-01-27T11:51:18;11.20;;;2.50;;
4812;SDS011;2420;51.202;8.698;2024-01-27T11:53:44;6.93;;;2.10;;
4812;SDS011;2420;51.202;8.698;2024-01-27T11:56:11;9.25;;;2.75;;
4812;SDS011;2420;51.202;8.698;2024-01-27T11:58:37;9.18;;;2.30;;
4812;SDS011;2420;51.202;8.698;2024-01-27T12:01:02;7.07;;;2.50;;
4812;SDS011;2420;51.202;8.698;2024-01-27T12:03:28;7.30;;;1.98;;
4812;SDS011;2420;51.202;8.698;2024-01-27T12:05:54;7.25;;;2.22;;
4812;SDS011;2420;51.202;8.698;2024-01-27T12:08:20;4.18;;;2.13;;
4812;SDS011;2420;51.202;8.698;2024-01-27T12:10:46;9.23;;;2.22;;
4812;SDS011;2420;51.202;8.698;2024-01-27T12:13:11;16.02;;;6.50;;
4812;SDS011;2420;51.202;8.698;2024-01-27T12:15:37;8.70;;;3.80;;
4812;SDS011;2420;51.202;8.698;2024-01-27T12:18:05;6.80;;;2.08;;
4812;SDS011;2420;51.202;8.698;2024-01-27T12:20:31;6.25;;;2.30;;
4812;SDS011;2420;51.202;8.698;2024-01-27T12:23:03;9.75;;;2.92;;
4812;SDS011;2420;51.202;8.698;2024-01-27T12:25:29;6.75;;;2.35;;
4812;SDS011;2420;51.202;8.698;2024-01-27T12:27:55;7.28;;;3.03;;
4812;SDS011;2420;51.202;8.698;2024-01-27T12:30:25;9.98;;;3.90;;
4812;SDS011;2420;51.202;8.698;2024-01-27T12:32:51;15.60;;;5.35;;
4812;SDS011;2420;51.202;8.698;2024-01-27T12:35:17;14.52;;;3.63;;
4812;SDS011;2420;51.202;8.698;2024-01-27T12:37:43;11.15;;;3.88;;
4812;SDS011;2420;51.202;8.698;2024-01-27T12:40:16;8.27;;;2.55;;
4812;SDS011;2420;51.202;8.698;2024-01-27T12:42:43;10.13;;;4.13;;
4812;SDS011;2420;51.202;8.698;2024-01-27T12:45:09;8.27;;;2.67;;
4812;SDS011;2420;51.202;8.698;2024-01-27T12:47:34;7.50;;;2.50;;
4812;SDS011;2420;51.202;8.698;2024-01-27T12:50:00;6.30;;;1.80;;
4812;SDS011;2420;51.202;8.698;2024-01-27T12:52:25;7.53;;;2.38;;
4812;SDS011;2420;51.202;8.698;2024-01-27T12:54:51;8.38;;;2.10;;
4812;SDS011;2420;51.202;8.698;2024-01-27T12:57:16;6.32;;;2.40;;
4812;SDS011;2420;51.202;8.698;2024-01-27T12:59:43;4.95;;;1.95;;
4812;SDS011;2420;51.202;8.698;2024-01-27T13:02:08;7.95;;;2.47;;
4812;SDS011;2420;51.202;8.698;2024-01-27T13:04:34;5.07;;;1.90;;
4812;SDS011;2420;51.202;8.698;2024-01-27T13:07:00;6.50;;;2.85;;
4812;SDS011;2420;51.202;8.698;2024-01-27T13:09:25;6.30;;;2.10;;
4812;SDS011;2420;51.202;8.698;2024-01-27T13:11:51;4.85;;;2.20;;
4812;SDS011;2420;51.202;8.698;2024-01-27T13:14:16;4.80;;;2.13;;
4812;SDS011;2420;51.202;8.698;2024-01-27T13:16:45;7.78;;;2.13;;
4812;SDS011;2420;51.202;8.698;2024-01-27T13:19:10;7.50;;;1.83;;
4812;SDS011;2420;51.202;8.698;2024-01-27T13:21:36;6.53;;;1.60;;
4812;SDS011;2420;51.202;8.698;2024-01-27T13:24:01;5.32;;;2.10;;
4812;SDS011;2420;51.202;8.698;2024-01-27T13:26:27;6.22;;;1.75;;
4812;SDS011;2420;51.202;8.698;2024-01-27T13:28:53;8.68;;;1.88;;
4812;SDS011;2420;51.202;8.698;2024-01-27T13:31:19;4.35;;;1.70;;
4812;SDS011;2420;51.202;8.698;2024-01-27T13:33:44;4.30;;;1.88;;
4812;SDS011;2420;51.202;8.698;2024-01-27T13:36:10;7.47;;;1.98;;
4812;SDS011;2420;51.202;8.698;2024-01-27T13:38:35;6.90;;;1.88;;
4812;SDS011;2420;51.202;8.698;2024-01-27T13:41:01;6.30;;;2.10;;
4812;SDS011;2420;51.202;8.698;2024-01-27T13:43:27;6.75;;;1.73;;
4812;SDS011;2420;51.202;8.698;2024-01-27T13:45:52;6.93;;;1.95;;
4812;SDS011;2420;51.202;8.698;2024-01-27T13:48:19;7.18;;;2.30;;
4812;SDS011;2420;51.202;8.698;2024-01-27T13:50:45;5.82;;;2.72;;
4812;SDS011;2420;51.202;8.698;2024-01-27T13:53:11;13.65;;;5.70;;
4812;SDS011;2420;51.202;8.698;2024-01-27T13:55:37;16.55;;;6.88;;
4812;SDS011;2420;51.202;8.698;2024-01-27T13:58:02;6.72;;;2.20;;
4812;SDS011;2420;51.202;8.698;2024-01-27T14:00:28;7.03;;;2.13;;
4812;SDS011;2420;51.202;8.698;2024-01-27T14:02:55;4.38;;;1.90;;
4812;SDS011;2420;51.202;8.698;2024-01-27T14:05:21;4.65;;;1.60;;
4812;SDS011;2420;51.202;8.698;2024-01-27T14:07:56;4.72;;;1.83;;
4812;SDS011;2420;51.202;8.698;2024-01-27T14:10:21;4.57;;;1.90;;
4812;SDS011;2420;51.202;8.698;2024-01-27T14:12:47;6.40;;;2.55;;
4812;SDS011;2420;51.202;8.698;2024-01-27T14:15:12;16.23;;;7.32;;
4812;SDS011;2420;51.202;8.698;2024-01-27T14:17:39;10.98;;;4.20;;
4812;SDS011;2420;51.202;8.698;2024-01-27T14:20:05;12.77;;;3.85;;
4812;SDS011;2420;51.202;8.698;2024-01-27T14:22:34;9.65;;;4.20;;
4812;SDS011;2420;51.202;8.698;2024-01-27T14:24:59;5.18;;;2.58;;
4812;SDS011;2420;51.202;8.698;2024-01-27T14:27:25;5.93;;;2.13;;
4812;SDS011;2420;51.202;8.698;2024-01-27T14:29:57;4.13;;;1.73;;
4812;SDS011;2420;51.202;8.698;2024-01-27T14:32:22;6.93;;;2.00;;
4812;SDS011;2420;51.202;8.698;2024-01-27T14:34:48;7.07;;;1.77;;
4812;SDS011;2420;51.202;8.698;2024-01-27T14:37:15;9.15;;;1.80;;
4812;SDS011;2420;51.202;8.698;2024-01-27T14:39:42;5.40;;;1.80;;
4812;SDS011;2420;51.202;8.698;2024-01-27T14:42:12;8.40;;;2.50;;
4812;SDS011;2420;51.202;8.698;2024-01-27T14:44:38;6.47;;;2.42;;
4812;SDS011;2420;51.202;8.698;2024-01-27T14:47:05;6.95;;;2.08;;
4812;SDS011;2420;51.202;8.698;2024-01-27T14:49:31;6.95;;;2.30;;
4812;SDS011;2420;51.202;8.698;2024-01-27T14:51:57;9.05;;;3.67;;
4812;SDS011;2420;51.202;8.698;2024-01-27T14:54:23;7.70;;;3.15;;
4812;SDS011;2420;51.202;8.698;2024-01-27T14:56:48;7.63;;;3.00;;